Time;durP1;ratioP1;P1;durP2;ratioP2;P2;SDS_P1;SDS_P2;PMS_P1;PMS_P2;Temp;Humidity;BMP_temperature;BMP_pressure;BME280_temperature;BME280_humidity;BME280_pressure;Samples;Min_cycle;Max_cycle;Signal;HPM_P1;HPM_P2
2023/05/15 00:02:05;;;;;;;7.85;5.93;;;;;;;11.27;73.09;94953.59;5045093;28;20032;-75
2023/05/15 00:04:31;;;;;;;7.70;6.00;;;;;;;11.15;73.59;94962.63;5045855;28;20122;-75
2023/05/15 00:06:56;;;;;;;8.18;6.50;;;;;;;11.17;73.51;94954.69;5047522;28;20021;-75
2023/05/15 00:09:22;;;;;;;9.02;6.60;;;;;;;11.02;73.76;94962.63;5044107;28;20075;-75
2023/05/15 00:11:47;;;;;;;8.65;6.50;;;;;;;11.21;73.20;94974.63;5045121;28;20409;-74
2023/05/15 00:14:12;;;;;;;13.88;7.47;;;;;;;11.32;73.01;94982.56;5044457;28;20107;-76
2023/05/15 00:16:38;;;;;;;27.48;12.45;;;;;;;11.40;72.72;94992.91;5044776;28;20018;-74
2023/05/15 00:19:03;;;;;;;52.10;20.17;;;;;;;11.52;72.71;94993.34;5044357;28;20029;-75
2023/05/15 00:21:29;;;;;;;60.20;22.85;;;;;;;11.58;72.40;94986.06;5044433;28;20021;-75
2023/05/15 00:23:57;;;;;;;60.75;22.77;;;;;;;11.64;72.06;94989.78;5044764;28;20403;-74
2023/05/15 00:26:23;;;;;;;43.55;16.65;;;;;;;11.67;71.68;94984.19;5043319;28;20036;-74
2023/05/15 00:28:48;;;;;;;59.38;21.30;;;;;;;11.74;71.29;94988.69;5044972;28;20021;-75
2023/05/15 00:31:13;;;;;;;111.82;32.17;;;;;;;11.81;71.18;94993.19;5043987;28;20036;-74
2023/05/15 00:33:39;;;;;;;81.53;22.73;;;;;;;11.78;71.13;94994.84;5044687;28;20104;-75
2023/05/15 00:36:05;;;;;;;43.38;14.95;;;;;;;11.79;71.18;94995.63;5043965;28;20426;-74
2023/05/15 00:38:32;;;;;;;20.67;8.75;;;;;;;11.84;70.94;94981.31;5045405;28;20419;-76
2023/05/15 00:40:58;;;;;;;11.52;6.95;;;;;;;11.84;70.88;94979.34;5045580;28;20029;-75
2023/05/15 00:43:24;;;;;;;19.88;10.43;;;;;;;11.87;70.68;94972.16;5043900;28;20020;-76
2023/05/15 00:45:51;;;;;;;33.95;14.45;;;;;;;11.91;70.61;94970.06;5044884;28;20029;-74
2023/05/15 00:48:18;;;;;;;97.93;34.67;;;;;;;11.90;70.40;94991.34;5043512;28;20411;-74
2023/05/15 00:50:44;;;;;;;192.40;65.38;;;;;;;11.76;70.39;94966.22;5044460;28;20034;-74
2023/05/15 00:53:09;;;;;;;152.20;53.80;;;;;;;11.88;70.40;94979.22;5027085;28;20024;-74
2023/05/15 00:55:35;;;;;;;86.82;33.40;;;;;;;11.91;70.40;94979.09;5043995;28;20032;-74
2023/05/15 00:58:02;;;;;;;46.30;21.65;;;;;;;11.92;70.35;94979.88;5043785;28;20056;-74
2023/05/15 01:00:27;;;;;;;29.15;14.80;;;;;;;11.91;70.26;94984.59;5027439;28;20120;-74
2023/05/15 01:02:53;;;;;;;18.63;11.32;;;;;;;11.95;70.28;94993.53;5046941;28;20033;-74
2023/05/15 01:05:18;;;;;;;15.32;8.95;;;;;;;11.91;70.41;94987.34;5044236;28;20516;-74
2023/05/15 01:07:51;;;;;;;12.27;8.73;;;;;;;11.96;70.21;94980.53;5028012;28;20025;-75
2023/05/15 01:10:18;;;;;;;14.57;9.05;;;;;;;11.95;70.20;94977.00;5043038;28;20744;-75
2023/05/15 01:12:45;;;;;;;12.35;8.82;;;;;;;11.96;70.03;94989.56;5043805;28;20039;-75
2023/05/15 01:15:11;;;;;;;12.43;8.80;;;;;;;11.94;69.80;94972.72;5044812;28;20025;-75
2023/05/15 01:17:36;;;;;;;11.05;8.25;;;;;;;11.95;69.89;94957.72;5043834;28;20027;-74
2023/05/15 01:20:05;;;;;;;14.35;9.00;;;;;;;11.94;69.91;94953.44;5045021;28;20537;-75
2023/05/15 01:22:41;;;;;;;12.02;9.02;;;;;;;11.95;69.96;94954.19;5043045;28;20029;-75
2023/05/15 01:25:16;;;;;;;12.57;9.10;;;;;;;11.96;70.02;94958.47;5043821;28;20025;-75
2023/05/15 01:27:49;;;;;;;12.38;8.63;;;;;;;11.94;69.88;94936.13;5043134;28;20029;-75
2023/05/15 01:30:22;;;;;;;16.80;8.75;;;;;;;11.95;69.91;94927.41;5044644;28;20514;-75
2023/05/15 01:33:15;;;;;;;12.95;8.45;;;;;;;11.94;69.97;94936.91;5043520;28;20035;-75
2023/05/15 01:35:51;;;;;;;12.35;8.43;;;;;;;11.93;69.71;94949.13;5026508;28;20048;-75
2023/05/15 01:38:19;;;;;;;11.10;7.53;;;;;;;11.92;69.94;94944.06;5045216;28;20053;-73
2023/05/15 01:40:47;;;;;;;11.77;8.23;;;;;;;11.90;69.77;94941.75;5044164;28;20033;-75
2023/05/15 01:43:17;;;;;;;9.65;7.57;;;;;;;11.88;69.66;94933.16;5044413;28;20487;-75
2023/05/15 01:45:43;;;;;;;9.18;7.50;;;;;;;11.89;69.59;94942.97;5043211;28;20033;-75
2023/05/15 01:48:09;;;;;;;10.02;7.65;;;;;;;11.87;69.53;94928.88;5042761;28;20028;-74
2023/05/15 01:50:35;;;;;;;11.35;7.60;;;;;;;11.85;69.84;94931.28;5043943;28;20112;-74
2023/05/15 01:53:02;;;;;;;12.82;7.68;;;;;;;11.84;69.97;94932.50;5043962;28;20105;-74
2023/05/15 01:55:28;;;;;;;10.40;7.50;;;;;;;11.84;69.68;94934.50;5043849;28;20035;-74
2023/05/15 01:57:54;;;;;;;9.73;6.80;;;;;;;11.76;69.79;94936.69;5045092;28;20036;-74
2023/05/15 02:00:21;;;;;;;9.32;7.05;;;;;;;11.49;70.43;94928.94;5043178;28;20411;-74
2023/05/15 02:02:46;;;;;;;11.10;7.93;;;;;;;11.38;70.84;94928.50;5043055;28;20060;-75
2023/05/15 02:05:13;;;;;;;10.90;8.50;;;;;;;11.20;71.46;94942.81;5042852;28;20397;-74
2023/05/15 02:07:41;;;;;;;10.77;8.77;;;;;;;11.19;71.44;94949.53;5043662;28;20027;-74
2023/05/15 02:10:07;;;;;;;12.38;9.23;;;;;;;11.14;71.67;94953.59;5042405;28;20039;-74
2023/05/15 02:12:33;;;;;;;10.68;8.25;;;;;;;11.21;71.56;94943.59;5026877;28;20094;-73
2023/05/15 02:14:59;;;;;;;9.90;8.52;;;;;;;11.13;71.60;94930.06;5025938;28;20460;-75
2023/05/15 02:17:27;;;;;;;9.98;8.98;;;;;;;11.07;72.13;94925.56;5043114;28;20029;-75
2023/05/15 02:19:52;;;;;;;13.73;8.88;;;;;;;11.01;72.01;94925.34;5044208;28;20029;-74
2023/05/15 02:22:18;;;;;;;9.98;8.38;;;;;;;11.00;72.22;94923.00;5042533;28;20075;-75
2023/05/15 02:24:43;;;;;;;13.35;9.20;;;;;;;11.05;71.95;94939.72;5044241;28;20032;-74
2023/05/15 02:27:44;;;;;;;10.18;8.07;;;;;;;11.15;71.93;94922.13;5042184;28;20113;-75
2023/05/15 02:30:28;;;;;;;11.63;8.70;;;;;;;11.22;71.83;94921.13;5043654;28;20029;-74
2023/05/15 02:33:22;;;;;;;12.43;8.60;;;;;;;11.27;71.77;94898.56;5048328;28;20036;-75
2023/05/15 02:35:47;;;;;;;;;;;;;;;11.31;71.48;94904.72;5046838;28;20382;-75
2023/05/15 02:38:19;;;;;;;10.70;7.63;;;;;;;11.32;71.51;94905.50;5047110;28;19912;-76
2023/05/15 02:40:46;;;;;;;10.00;8.05;;;;;;;11.34;71.51;94916.81;5045915;28;20035;-74
2023/05/15 02:43:13;;;;;;;9.52;7.97;;;;;;;11.32;71.43;94925.53;5047081;28;20086;-75
2023/05/15 02:45:38;;;;;;;10.75;8.70;;;;;;;11.35;71.37;94932.88;5046000;28;20029;-74
2023/05/15 02:48:05;;;;;;;10.85;8.43;;;;;;;11.41;71.35;94928.41;5046940;28;20035;-75
2023/05/15 02:50:31;;;;;;;11.20;9.30;;;;;;;11.48;71.18;94918.38;5046428;28;20029;-76
2023/05/15 02:53:07;;;;;;;10.73;8.23;;;;;;;11.52;71.10;94902.47;5048440;28;20498;-74
2023/05/15 02:55:33;;;;;;;9.80;8.52;;;;;;;11.55;70.80;94896.88;5031464;28;20112;-75
2023/05/15 02:57:58;;;;;;;10.52;8.93;;;;;;;11.57;70.71;94896.41;5045456;28;20112;-75
2023/05/15 03:00:24;;;;;;;12.02;9.27;;;;;;;11.62;70.55;94906.88;5046445;28;20112;-74
2023/05/15 03:02:49;;;;;;;9.93;8.18;;;;;;;11.63;70.44;94905.66;5045787;28;20500;-75
2023/05/15 03:05:15;;;;;;;13.80;9.05;;;;;;;11.67;70.67;94920.06;5046503;28;20132;-74
2023/05/15 03:07:41;;;;;;;11.13;8.63;;;;;;;11.68;70.69;94925.13;5045828;28;20108;-74
2023/05/15 03:10:07;;;;;;;11.13;9.15;;;;;;;11.67;70.80;94925.59;5047247;28;20022;-74
2023/05/15 03:12:33;;;;;;;12.15;8.95;;;;;;;11.68;70.70;94929.88;5029613;28;20033;-75
2023/05/15 03:15:00;;;;;;;13.80;10.02;;;;;;;11.66;70.42;94919.31;5047076;28;20025;-75
2023/05/15 03:17:26;;;;;;;12.10;9.95;;;;;;;11.72;70.42;94919.53;5046463;28;20110;-75
2023/05/15 03:19:52;;;;;;;12.50;9.38;;;;;;;11.76;70.36;94919.41;5045513;28;20450;-75
2023/05/15 03:22:17;;;;;;;13.60;10.80;;;;;;;11.78;70.21;94922.47;5046223;28;20531;-75
2023/05/15 03:24:42;;;;;;;11.75;9.32;;;;;;;11.80;70.26;94931.81;5045354;28;20510;-75
2023/05/15 03:27:08;;;;;;;13.27;9.85;;;;;;;11.79;70.20;94918.50;5045332;28;20024;-74
2023/05/15 03:29:33;;;;;;;16.17;10.07;;;;;;;11.80;70.05;94914.53;5046766;28;20029;-75
2023/05/15 03:31:58;;;;;;;14.35;10.00;;;;;;;11.80;70.18;94909.78;5045148;28;20031;-75
2023/05/15 03:34:24;;;;;;;13.05;10.00;;;;;;;11.76;70.04;94903.66;5048082;28;20037;-75
2023/05/15 03:36:50;;;;;;;11.15;9.88;;;;;;;11.81;70.11;94903.09;5045896;28;20028;-74
2023/05/15 03:39:15;;;;;;;15.23;11.07;;;;;;;11.85;69.91;94914.75;5047397;28;20095;-75
2023/05/15 03:41:41;;;;;;;13.82;11.45;;;;;;;11.85;69.85;94901.00;5045854;28;20029;-75
2023/05/15 03:44:14;;;;;;;13.82;10.80;;;;;;;11.90;69.93;94907.94;5046851;28;20599;-75
2023/05/15 03:46:40;;;;;;;16.02;11.02;;;;;;;11.89;69.98;94898.91;5045378;28;20484;-74
2023/05/15 03:49:05;;;;;;;12.75;10.68;;;;;;;11.92;69.79;94922.78;5048418;28;20068;-74
2023/05/15 03:51:30;;;;;;;12.48;10.43;;;;;;;11.94;69.80;94925.88;5047908;28;20025;-75
2023/05/15 03:53:56;;;;;;;14.13;11.80;;;;;;;11.95;69.82;94921.91;5045035;28;20031;-74
2023/05/15 03:56:22;;;;;;;13.15;11.60;;;;;;;11.95;69.96;94913.63;5046041;28;20369;-74
2023/05/15 03:58:47;;;;;;;16.00;13.52;;;;;;;11.96;69.82;94915.16;5045737;28;20029;-75
2023/05/15 04:01:12;;;;;;;18.02;13.27;;;;;;;11.99;69.78;94927.31;5045360;28;20109;-74
2023/05/15 04:03:38;;;;;;;14.57;12.13;;;;;;;12.01;69.66;94913.84;5044266;28;20048;-75
2023/05/15 04:06:04;;;;;;;15.65;12.07;;;;;;;12.01;69.58;94913.84;5044947;28;20083;-74
2023/05/15 04:08:29;;;;;;;14.70;11.80;;;;;;;12.02;69.66;94904.34;5046390;28;20027;-74
2023/05/15 04:10:55;;;;;;;13.50;10.57;;;;;;;12.04;69.35;94910.19;5045443;28;20041;-74
2023/05/15 04:13:20;;;;;;;12.45;10.68;;;;;;;12.06;69.17;94915.25;5045480;28;20028;-74
2023/05/15 04:15:45;;;;;;;13.60;11.13;;;;;;;12.07;69.26;94925.81;5045391;28;20051;-74
2023/05/15 04:18:11;;;;;;;15.30;10.30;;;;;;;12.08;69.28;94927.34;5028833;28;20025;-74
2023/05/15 04:20:36;;;;;;;13.00;11.05;;;;;;;12.07;69.30;94931.34;5027533;28;20526;-74
2023/05/15 04:23:03;;;;;;;13.02;10.35;;;;;;;12.11;69.16;94931.22;5044629;28;20078;-74
2023/05/15 04:25:28;;;;;;;13.18;10.95;;;;;;;12.11;69.27;94926.47;5043836;28;20033;-74
2023/05/15 04:27:54;;;;;;;13.10;11.07;;;;;;;12.13;69.07;94931.53;5045347;28;20452;-74
2023/05/15 04:30:20;;;;;;;15.02;12.02;;;;;;;12.16;69.07;94925.16;5046145;28;20021;-74
2023/05/15 04:32:45;;;;;;;12.93;10.57;;;;;;;12.15;68.99;94921.59;5043761;28;20028;-74
2023/05/15 04:35:12;;;;;;;12.40;10.20;;;;;;;12.14;68.89;94911.78;5045162;28;20095;-75
2023/05/15 04:37:41;;;;;;;15.23;11.60;;;;;;;12.18;69.16;94908.94;5045304;28;20151;-75
2023/05/15 04:40:08;;;;;;;11.75;10.50;;;;;;;12.19;69.14;94899.44;5044439;28;20055;-77
2023/05/15 04:42:34;;;;;;;12.13;10.70;;;;;;;12.20;69.06;94890.72;5043773;28;20112;-76
2023/05/15 04:45:00;;;;;;;14.13;11.50;;;;;;;11.94;69.76;94886.53;5047056;28;20032;-75
2023/05/15 04:47:25;;;;;;;13.07;11.60;;;;;;;11.84;70.24;94907.72;5044627;28;20045;-75
2023/05/15 04:49:51;;;;;;;16.30;11.82;;;;;;;11.84;70.38;94926.25;5045424;28;20025;-74
2023/05/15 04:52:16;;;;;;;13.90;11.40;;;;;;;11.89;70.46;94920.94;5046158;28;20562;-74
2023/05/15 04:54:42;;;;;;;14.73;11.30;;;;;;;11.90;70.47;94921.69;5043260;28;20037;-75
2023/05/15 04:57:08;;;;;;;16.73;12.00;;;;;;;11.76;70.89;94911.16;5044653;28;20021;-75
2023/05/15 04:59:33;;;;;;;14.75;12.80;;;;;;;11.70;71.34;94917.22;5027441;28;20411;-76
2023/05/15 05:01:59;;;;;;;14.75;12.25;;;;;;;11.74;71.41;94911.56;5045256;28;20078;-74
2023/05/15 05:04:25;;;;;;;13.85;11.52;;;;;;;11.72;71.51;94896.72;5043834;28;20091;-74
2023/05/15 05:06:50;;;;;;;14.88;11.48;;;;;;;11.73;71.40;94892.75;5043539;28;20021;-74
2023/05/15 05:09:18;;;;;;;14.70;11.52;;;;;;;11.85;71.25;94886.47;5027302;28;20115;-75
2023/05/15 05:11:43;;;;;;;16.88;13.15;;;;;;;11.92;71.45;94897.22;5043376;28;20032;-74
2023/05/15 05:14:13;;;;;;;19.52;13.45;;;;;;;12.02;71.22;94898.06;5044256;28;20485;-74
2023/05/15 05:16:39;;;;;;;15.15;12.63;;;;;;;12.10;71.40;94910.38;5043244;28;20487;-76
2023/05/15 05:19:05;;;;;;;15.32;13.48;;;;;;;12.18;70.90;94898.66;5027119;28;20044;-75
2023/05/15 05:21:31;;;;;;;15.32;12.38;;;;;;;12.23;70.79;94892.59;5043739;28;20033;-75
2023/05/15 05:23:57;;;;;;;14.45;12.10;;;;;;;12.32;70.28;94905.66;5043471;28;20025;-75
2023/05/15 05:26:23;;;;;;;14.98;11.60;;;;;;;12.37;69.80;94902.31;5026673;28;20031;-75
2023/05/15 05:28:48;;;;;;;14.00;11.50;;;;;;;12.40;69.55;94901.44;5044716;28;20032;-75
2023/05/15 05:31:14;;;;;;;14.80;11.68;;;;;;;12.51;69.32;94905.78;5045267;28;20056;-75
2023/05/15 05:33:39;;;;;;;13.45;10.95;;;;;;;12.55;69.05;94892.63;5043124;28;20103;-75
2023/05/15 05:36:06;;;;;;;14.18;11.40;;;;;;;12.62;69.11;94901.41;5044182;28;20032;-75
2023/05/15 05:38:35;;;;;;;19.90;11.80;;;;;;;12.63;69.30;94907.69;5044736;28;20044;-75
2023/05/15 05:41:00;;;;;;;15.30;12.07;;;;;;;12.60;69.02;94895.56;5047928;28;20043;-76
2023/05/15 05:43:26;;;;;;;16.20;12.23;;;;;;;12.67;68.99;94886.25;5045582;28;20108;-76
2023/05/15 05:45:51;;;;;;;14.50;12.02;;;;;;;12.71;68.70;94892.41;5026575;28;20037;-75
2023/05/15 05:48:17;;;;;;;18.02;11.70;;;;;;;12.62;68.59;94889.63;5044920;28;20561;-75
2023/05/15 05:50:42;;;;;;;14.43;11.98;;;;;;;12.63;69.02;94889.16;5042918;28;20083;-75
2023/05/15 05:53:08;;;;;;;16.60;12.43;;;;;;;12.67;69.23;94891.78;5045185;28;20024;-75
2023/05/15 05:55:33;;;;;;;15.27;11.95;;;;;;;12.70;69.19;94891.66;5044414;28;20029;-75
2023/05/15 05:57:59;;;;;;;17.23;12.82;;;;;;;12.76;69.08;94898.09;5043797;28;20028;-75
2023/05/15 06:00:24;;;;;;;15.00;12.95;;;;;;;12.90;69.12;94899.56;5042815;28;20102;-76
2023/05/15 06:02:58;;;;;;;15.73;12.13;;;;;;;13.07;68.82;94902.06;5043095;28;20040;-75
2023/05/15 06:05:26;;;;;;;16.27;12.65;;;;;;;13.21;68.73;94909.84;5044182;28;20399;-75
2023/05/15 06:07:52;;;;;;;16.13;12.50;;;;;;;13.35;68.58;94909.25;5048482;28;20393;-74
2023/05/15 06:10:18;;;;;;;16.70;12.80;;;;;;;13.45;68.11;94899.78;5049136;28;20036;-74
2023/05/15 06:12:44;;;;;;;15.55;11.20;;;;;;;13.55;67.07;94893.06;5046683;28;20025;-75
2023/05/15 06:15:10;;;;;;;14.95;11.02;;;;;;;13.66;66.96;94881.59;5048885;28;20031;-74
2023/05/15 06:17:36;;;;;;;16.58;12.50;;;;;;;13.75;66.49;94881.56;5030037;28;20033;-76
2023/05/15 06:20:04;;;;;;;15.57;11.85;;;;;;;13.81;66.56;94885.25;5030437;28;20462;-74
2023/05/15 06:22:31;;;;;;;14.63;11.15;;;;;;;13.93;65.53;94888.34;5047196;28;20344;-74
2023/05/15 06:24:57;;;;;;;18.80;11.98;;;;;;;13.98;65.65;94893.25;5047980;28;20061;-75
2023/05/15 06:27:25;;;;;;;17.33;11.27;;;;;;;13.99;65.38;94903.88;5048449;28;20451;-75
2023/05/15 06:29:50;;;;;;;18.52;11.38;;;;;;;14.07;64.42;94896.81;5029644;28;20049;-75
2023/05/15 06:32:16;;;;;;;15.95;11.45;;;;;;;14.27;64.22;94901.84;5029895;28;20059;-75
2023/05/15 06:34:41;;;;;;;14.90;10.65;;;;;;;14.40;64.55;94903.72;5047889;28;20449;-75
2023/05/15 06:37:07;;;;;;;55.03;15.00;;;;;;;14.33;64.09;94902.00;5051488;28;20021;-75
2023/05/15 06:39:32;;;;;;;20.45;11.80;;;;;;;14.42;64.15;94899.25;5048062;28;20411;-75
2023/05/15 06:42:00;;;;;;;16.67;11.95;;;;;;;14.51;64.25;94904.81;5046632;28;20036;-75
2023/05/15 06:44:29;;;;;;;13.45;10.93;;;;;;;14.54;63.75;94908.63;5047005;28;20052;-76
2023/05/15 06:46:55;;;;;;;18.05;11.27;;;;;;;14.66;63.73;94910.47;5029743;28;20029;-77
2023/05/15 06:49:20;;;;;;;14.30;11.32;;;;;;;14.66;63.34;94910.47;5047208;28;20403;-76
2023/05/15 06:51:45;;;;;;;17.17;13.15;;;;;;;14.75;62.89;94904.91;5047725;28;20039;-75
2023/05/15 06:54:11;;;;;;;17.33;12.50;;;;;;;14.92;61.95;94915.63;5048508;28;20438;-76
2023/05/15 06:56:36;;;;;;;19.00;12.35;;;;;;;15.05;61.84;94919.75;5029641;28;20013;-74
2023/05/15 06:59:02;;;;;;;19.20;12.32;;;;;;;15.11;61.67;94915.09;5047964;28;20539;-76
2023/05/15 07:01:27;;;;;;;21.45;13.23;;;;;;;15.18;60.76;94914.00;5047483;28;20032;-77
2023/05/15 07:03:52;;;;;;;20.83;13.38;;;;;;;15.25;61.54;94899.81;5029591;28;20041;-75
2023/05/15 07:06:18;;;;;;;19.52;12.75;;;;;;;15.42;61.34;94889.13;5047881;28;20557;-76
2023/05/15 07:08:43;;;;;;;17.38;12.10;;;;;;;15.55;61.04;94895.22;5045825;28;20029;-77
2023/05/15 07:11:08;;;;;;;16.52;11.27;;;;;;;15.60;60.30;94902.13;5048820;28;20035;-76
2023/05/15 07:13:34;;;;;;;16.20;12.20;;;;;;;15.67;60.76;94899.03;5047511;28;20024;-76
2023/05/15 07:15:59;;;;;;;18.00;12.00;;;;;;;15.74;60.31;94900.69;5048230;28;20021;-75
2023/05/15 07:18:25;;;;;;;18.40;11.60;;;;;;;15.69;59.12;94909.63;5046903;28;20037;-76
2023/05/15 07:20:50;;;;;;;17.15;10.63;;;;;;;15.68;59.04;94917.19;5047328;28;20025;-76
2023/05/15 07:23:15;;;;;;;17.60;10.68;;;;;;;15.52;59.22;94920.31;5046342;28;20032;-76
2023/05/15 07:25:41;;;;;;;17.55;10.68;;;;;;;15.54;59.49;94913.09;5046428;28;20036;-76
2023/05/15 07:28:06;;;;;;;15.02;9.90;;;;;;;15.65;60.04;94909.81;5046526;28;20128;-74
2023/05/15 07:30:32;;;;;;;15.10;10.02;;;;;;;15.71;60.01;94905.13;5028219;28;20411;-75
2023/05/15 07:32:57;;;;;;;15.25;11.00;;;;;;;15.82;59.56;94897.06;5034110;28;20092;-76
2023/05/15 07:35:22;;;;;;;13.07;9.85;;;;;;;15.89;58.73;94890.44;5046939;28;20100;-75
2023/05/15 07:37:48;;;;;;;15.50;10.77;;;;;;;15.94;59.35;94898.06;5047479;28;20025;-75
2023/05/15 07:40:14;;;;;;;14.00;10.18;;;;;;;16.04;59.01;94896.00;5047067;28;20029;-76
2023/05/15 07:42:42;;;;;;;13.10;9.95;;;;;;;16.03;57.96;94900.78;5046449;28;20021;-76
2023/05/15 07:45:08;;;;;;;15.60;9.73;;;;;;;16.10;58.55;94894.09;5045980;28;20017;-76
2023/05/15 07:47:34;;;;;;;14.55;10.07;;;;;;;16.03;58.99;94892.47;5044707;28;20037;-75
2023/05/15 07:49:59;;;;;;;13.13;9.38;;;;;;;16.01;59.14;94897.72;5047487;28;20017;-76
2023/05/15 07:52:25;;;;;;;14.75;11.00;;;;;;;16.04;58.98;94905.09;5044550;28;20037;-76
2023/05/15 07:54:50;;;;;;;15.93;10.27;;;;;;;16.10;59.07;94922.59;5045850;28;20032;-76
2023/05/15 07:57:15;;;;;;;16.15;10.15;;;;;;;16.13;58.86;94918.91;5046540;28;20116;-75
2023/05/15 07:59:41;;;;;;;13.70;9.60;;;;;;;15.99;58.14;94916.06;5045045;28;20032;-75
2023/05/15 08:02:06;;;;;;;34.30;11.45;;;;;;;16.05;57.61;94931.56;5046632;28;20025;-75
2023/05/15 08:04:33;;;;;;;24.25;10.93;;;;;;;16.11;58.68;94928.91;5045680;28;20039;-76
2023/05/15 08:06:58;;;;;;;20.48;10.23;;;;;;;16.17;58.37;94922.25;5047148;28;20040;-76
2023/05/15 08:09:24;;;;;;;14.75;10.60;;;;;;;16.18;58.34;94923.78;5044608;28;20380;-75
2023/05/15 08:11:49;;;;;;;14.25;10.10;;;;;;;16.11;57.51;94921.34;5046833;28;20104;-76
2023/05/15 08:14:14;;;;;;;13.93;9.93;;;;;;;16.10;57.38;94919.81;5044874;28;20112;-75
2023/05/15 08:16:40;;;;;;;14.65;11.05;;;;;;;16.05;57.81;94919.72;5046569;28;20113;-74
2023/05/15 08:19:06;;;;;;;15.25;11.02;;;;;;;16.02;58.12;94918.66;5047134;28;20033;-77
2023/05/15 08:21:32;;;;;;;16.52;12.05;;;;;;;16.08;58.00;94916.00;5046154;28;20024;-78
2023/05/15 08:23:58;;;;;;;14.20;11.70;;;;;;;16.16;58.08;94920.69;5046382;28;20553;-75
2023/05/15 08:26:24;;;;;;;19.58;12.25;;;;;;;16.15;58.45;94918.41;5044056;28;20055;-75
2023/05/15 08:28:49;;;;;;;14.48;11.70;;;;;;;16.20;58.60;94923.31;5049906;28;20017;-75
2023/05/15 08:31:15;;;;;;;18.23;12.52;;;;;;;16.18;58.51;94918.25;5046303;28;20033;-76
2023/05/15 08:33:40;;;;;;;16.17;12.75;;;;;;;16.12;57.74;94920.13;5044807;28;20115;-75
2023/05/15 08:36:06;;;;;;;19.05;13.52;;;;;;;16.10;58.86;94921.84;5044158;28;20032;-75
2023/05/15 08:38:32;;;;;;;20.10;14.00;;;;;;;16.17;58.90;94922.25;5044496;28;20395;-76
2023/05/15 08:41:04;;;;;;;18.00;13.30;;;;;;;16.03;57.84;94914.66;5045703;28;20028;-75
2023/05/15 08:43:30;;;;;;;14.90;12.90;;;;;;;15.57;58.48;94917.66;5044161;28;20028;-78
2023/05/15 08:45:55;;;;;;;16.33;12.30;;;;;;;15.60;58.73;94907.66;5046037;28;20396;-77
2023/05/15 08:48:24;;;;;;;18.63;12.90;;;;;;;15.64;58.82;94903.50;5043853;28;20017;-76
2023/05/15 08:50:51;;;;;;;17.67;12.32;;;;;;;15.41;58.99;94899.44;5044848;28;20020;-76
2023/05/15 08:53:17;;;;;;;19.98;13.55;;;;;;;15.23;59.99;94901.53;5043951;28;20029;-76
2023/05/15 08:55:42;;;;;;;19.65;13.70;;;;;;;15.39;60.15;94903.91;5027656;28;20043;-75
2023/05/15 08:58:08;;;;;;;19.50;13.13;;;;;;;15.35;60.29;94900.53;5027661;28;20393;-76
2023/05/15 09:00:34;;;;;;;15.02;12.20;;;;;;;15.30;59.16;94890.88;5043925;28;20028;-75
2023/05/15 09:03:02;;;;;;;17.25;12.20;;;;;;;15.03;60.09;94886.22;5045475;28;20739;-75
2023/05/15 09:05:28;;;;;;;17.40;11.02;;;;;;;14.93;60.25;94876.41;5045034;28;20025;-75
2023/05/15 09:07:54;;;;;;;15.30;11.43;;;;;;;14.80;61.63;94881.38;5027735;28;20033;-76
2023/05/15 09:10:20;;;;;;;16.15;10.77;;;;;;;14.58;62.09;94892.66;5043602;28;20495;-75
2023/05/15 09:12:45;;;;;;;16.58;12.27;;;;;;;14.44;62.99;94882.19;5043968;28;20027;-74
2023/05/15 09:15:23;;;;;;;18.02;12.80;;;;;;;14.63;63.04;94886.50;5042089;28;20033;-74
2023/05/15 09:17:49;;;;;;;18.17;12.57;;;;;;;14.80;63.05;94886.91;5043549;28;20485;-74
2023/05/15 09:20:27;;;;;;;20.23;12.63;;;;;;;14.89;63.44;94875.81;5045284;28;20032;-75
2023/05/15 09:22:52;;;;;;;16.00;12.02;;;;;;;14.86;62.32;94869.22;5044192;28;20491;-74
2023/05/15 09:25:41;;;;;;;16.77;11.63;;;;;;;14.98;62.06;94877.78;5031360;28;20025;-75
2023/05/15 09:28:09;;;;;;;16.48;11.55;;;;;;;15.03;61.79;94866.84;5043980;28;20431;-75
2023/05/15 09:30:38;;;;;;;15.75;11.85;;;;;;;15.22;60.93;94866.78;5043631;28;20025;-77
2023/05/15 09:33:03;;;;;;;15.20;11.25;;;;;;;15.19;60.76;94862.91;5044928;28;20028;-74
2023/05/15 09:35:35;;;;;;;17.17;12.10;;;;;;;15.32;60.77;94860.72;5043011;28;20028;-75
2023/05/15 09:38:11;;;;;;;17.80;13.52;;;;;;;15.44;60.92;94866.50;5044132;28;20025;-75
2023/05/15 09:40:38;;;;;;;18.10;13.40;;;;;;;15.62;60.60;94855.31;5044422;28;20029;-75
2023/05/15 09:43:03;;;;;;;18.35;12.50;;;;;;;15.54;58.87;94841.06;5043693;28;20029;-75
2023/05/15 09:45:30;;;;;;;16.00;11.35;;;;;;;15.59;59.13;94843.16;5044673;28;20021;-75
2023/05/15 09:47:56;;;;;;;17.52;12.45;;;;;;;15.69;59.33;94849.44;5043183;28;20032;-76
2023/05/15 09:50:23;;;;;;;14.75;11.65;;;;;;;15.67;58.80;94849.16;5043387;28;20056;-75
2023/05/15 09:52:50;;;;;;;16.98;13.07;;;;;;;15.73;58.96;94838.94;5043080;28;20021;-74
2023/05/15 09:55:18;;;;;;;14.98;11.35;;;;;;;15.74;58.74;94832.16;5044068;28;20036;-75
2023/05/15 09:57:44;;;;;;;14.15;11.27;;;;;;;15.82;58.30;94830.53;5042689;28;20021;-75
2023/05/15 10:00:10;;;;;;;16.70;11.93;;;;;;;15.93;58.82;94836.31;5043893;28;20028;-76
2023/05/15 10:02:40;;;;;;;19.02;12.25;;;;;;;16.07;58.62;94845.91;5044166;28;20033;-75
2023/05/15 10:05:06;;;;;;;16.52;10.93;;;;;;;16.20;58.22;94837.34;5026277;28;20557;-75
2023/05/15 10:07:33;;;;;;;12.00;10.02;;;;;;;16.17;57.15;94832.72;5044418;28;20550;-75
2023/05/15 10:10:01;;;;;;;15.80;10.75;;;;;;;15.99;57.41;94835.66;5044105;28;20209;-75
2023/05/15 10:12:27;;;;;;;16.38;11.80;;;;;;;15.61;58.06;94832.38;5044040;28;20044;-74
2023/05/15 10:14:55;;;;;;;20.00;11.30;;;;;;;15.76;58.42;94835.22;5042576;28;20091;-74
2023/05/15 10:17:21;;;;;;;16.13;11.85;;;;;;;15.85;58.46;94839.94;5043764;28;20577;-75
2023/05/15 10:19:49;;;;;;;12.95;10.68;;;;;;;16.02;57.90;94852.13;5044282;28;20087;-76
2023/05/15 10:22:15;;;;;;;21.30;15.25;;;;;;;16.07;57.50;94857.00;5046175;28;20029;-75
2023/05/15 10:24:43;;;;;;;15.63;11.25;;;;;;;16.15;57.37;94854.63;5044536;28;20035;-75
2023/05/15 10:27:09;;;;;;;16.23;11.02;;;;;;;16.24;57.31;94859.34;5043798;28;20468;-74
2023/05/15 10:29:35;;;;;;;16.38;10.20;;;;;;;16.32;56.96;94860.50;5043743;28;20571;-74
2023/05/15 10:32:01;;;;;;;16.27;10.70;;;;;;;16.45;57.02;94861.75;5043688;28;20572;-75
2023/05/15 10:34:26;;;;;;;19.17;10.32;;;;;;;16.52;56.45;94868.19;5045387;28;20112;-76
2023/05/15 10:36:53;;;;;;;13.32;9.95;;;;;;;16.62;56.51;94869.59;5042584;28;20040;-75
2023/05/15 10:39:19;;;;;;;14.65;10.60;;;;;;;16.59;56.01;94867.78;5043315;28;20068;-75
2023/05/15 10:41:44;;;;;;;13.82;11.18;;;;;;;16.68;56.60;94874.00;5042697;28;20058;-75
2023/05/15 10:44:10;;;;;;;15.90;10.90;;;;;;;16.76;56.59;94877.22;5042556;28;20096;-76
2023/05/15 10:46:36;;;;;;;14.52;11.43;;;;;;;16.79;56.86;94872.69;5042898;28;20029;-74
2023/05/15 10:49:02;;;;;;;15.70;11.35;;;;;;;16.87;56.56;94862.75;5043712;28;20033;-75
2023/05/15 10:51:30;;;;;;;19.90;10.98;;;;;;;16.93;56.88;94858.81;5043706;28;20151;-76
2023/05/15 10:53:56;;;;;;;15.18;10.65;;;;;;;16.96;56.83;94857.09;5029347;28;20349;-75
2023/05/15 10:56:26;;;;;;;16.60;11.50;;;;;;;17.02;57.23;94865.50;5046798;28;20509;-75
2023/05/15 10:58:53;;;;;;;12.65;10.18;;;;;;;17.03;57.04;94858.69;5046014;28;20138;-78
2023/05/15 11:01:32;;;;;;;14.88;9.48;;;;;;;17.03;56.40;94867.78;5045951;28;20029;-75
2023/05/15 11:04:12;;;;;;;12.45;8.88;;;;;;;17.02;56.51;94852.38;5047491;28;20116;-74
2023/05/15 11:06:39;;;;;;;14.63;9.40;;;;;;;17.01;56.26;94836.97;5045653;28;20090;-75
2023/05/15 11:09:23;;;;;;;13.10;9.32;;;;;;;17.05;56.11;94834.78;5030239;28;20538;-75
2023/05/15 11:11:51;;;;;;;13.38;10.63;;;;;;;17.05;56.33;94845.88;5046817;28;20029;-75
2023/05/15 11:14:17;;;;;;;17.92;11.02;;;;;;;17.02;56.73;94848.84;5047192;28;20075;-75
2023/05/15 11:16:51;;;;;;;18.20;11.75;;;;;;;17.06;56.67;94844.63;5047768;28;20032;-75
2023/05/15 11:19:24;;;;;;;14.73;11.27;;;;;;;17.01;56.07;94839.75;5047714;28;20194;-74